KAVL/AVL METAR and TAF weather

Enter ICAO airport designator
Station Type Date Time Source
KAVL METAR 2020/01/19 22:54 UTC NOAA

KAVL 192254Z 35014G22KT 10SM CLR 01/M08 A3005 RMK AO2 PK WND 33026/2158 SLP180 T00111078


Station Type Date Time Source
KAVL Decoded METAR 2020/01/19 22:54 UTC NOAA

ASHEVILLE REGIONAL AIRPORT, NC, United States (KAVL) 35-26N 82-32W 670M
Jan 19, 2020 - 05:54 PM EST / 2020.01.19 2254 UTC
Wind: from the N (350 degrees) at 16 MPH (14 KT) gusting to 25 MPH (22 KT):0
Visibility: 10 mile(s):0
Sky conditions: clear
Temperature: 34.0 F (1.1 C)
Windchill: 23 F (-5 C):1
Dew Point: 18.0 F (-7.8 C)
Relative Humidity: 51%
Pressure (altimeter): 30.05 in. Hg (1017 hPa)
ob: KAVL 192254Z 35014G22KT 10SM CLR 01/M08 A3005 RMK AO2 PK WND 33026/2158 SLP180 T00111078
cycle: 23

Station Type Date Time Source
KAVL TAF 2020/01/19 20:52 UTC NOAA

TAF KAVL 191950Z 1920/2018 35022G28KT P6SM SKC
FM200300 34013G24KT P6SM SKC
FM200400 34012G19KT P6SM SKC
FM201200 35010KT P6SM SCT250

Example: see airport list